MMZH/ZIH METAR and TAF weather

Enter ICAO airport designator
Station Type Date Time Source
MMZH METAR 2020/06/05 23:40 UTC NOAA

MMZH 052340Z 23008KT 7SM FEW250 30/22 A2975 RMK SLP069 54000 924 8/002 HZY ISOL SC


Station Type Date Time Source
MMZH Decoded METAR 2020/06/05 23:40 UTC NOAA

Ixtapa-Zihuatanejo, Mexico (MMZH) 17-36N 101-28W
Jun 05, 2020 - 07:40 PM EDT / 2020.06.05 2340 UTC
Wind: from the SW (230 degrees) at 9 MPH (8 KT):0
Visibility: 7 mile(s):0
Sky conditions: mostly clear
Temperature: 86 F (30 C)
Heat index: 91.8 F (33.2 C):1
Dew Point: 71 F (22 C)
Relative Humidity: 62%
Pressure (altimeter): 29.75 in. Hg (1007 hPa)
Pressure tendency: the same as three hours ago
ob: MMZH 052340Z 23008KT 7SM FEW250 30/22 A2975 RMK SLP069 54000 924 8/002 HZY ISOL SC
cycle: 23

Station Type Date Time Source
MMZH TAF 2020/06/05 18:25 UTC NOAA

TAF MMZH 051617Z 0518/0618 24012KT P6SM SCT015
FM060300 00000KT P6SM SCT020 PROB40 0608/0612 5SM TSRA BKN015CB

Example: see airport list